createdAt,value
2023-01-30T00:00:12.576Z,-4.63
2023-01-30T00:01:12.572Z,-4.63
2023-01-30T00:02:12.603Z,-4.56
2023-01-30T00:03:12.539Z,-4.56
2023-01-30T00:04:12.533Z,-4.58
2023-01-30T00:05:12.590Z,-4.73
2023-01-30T00:06:12.515Z,-4.74
2023-01-30T00:07:12.506Z,-4.72
2023-01-30T00:08:12.487Z,-4.62
2023-01-30T00:09:12.474Z,-4.66
2023-01-30T00:10:12.466Z,-4.67
2023-01-30T00:11:12.483Z,-4.73
2023-01-30T00:12:12.449Z,-4.66
2023-01-30T00:13:12.442Z,-4.69
2023-01-30T00:14:12.425Z,-4.63
2023-01-30T00:15:12.413Z,-4.63
2023-01-30T00:16:12.475Z,-4.51
2023-01-30T00:17:12.407Z,-4.44
2023-01-30T00:18:12.388Z,-4.46
2023-01-30T00:19:12.379Z,-4.37
2023-01-30T00:20:14.758Z,-4.49
2023-01-30T00:21:12.358Z,-4.38
2023-01-30T00:22:12.360Z,-4.46
2023-01-30T00:23:12.357Z,-4.37
2023-01-30T00:24:12.493Z,-4.26
2023-01-30T00:25:12.451Z,-4.37
2023-01-30T00:26:12.386Z,-4.38
2023-01-30T00:27:12.285Z,-4.41
2023-01-30T00:28:12.289Z,-4.48
2023-01-30T00:29:12.312Z,-4.48
2023-01-30T00:30:12.254Z,-4.73
2023-01-30T00:31:12.262Z,-4.63
2023-01-30T00:32:12.234Z,-4.85
2023-01-30T00:33:12.218Z,-4.70
2023-01-30T00:34:12.229Z,-4.66
2023-01-30T00:35:12.238Z,-4.90
2023-01-30T00:36:12.191Z,-4.63
2023-01-30T00:37:12.176Z,-4.63
2023-01-30T00:38:12.170Z,-4.81
2023-01-30T00:39:12.156Z,-4.52
2023-01-30T00:40:12.157Z,-4.55
2023-01-30T00:41:12.163Z,-4.55
2023-01-30T00:42:12.127Z,-4.46
2023-01-30T00:44:12.131Z,-4.67
2023-01-30T00:45:12.092Z,-4.77
2023-01-30T00:46:12.109Z,-4.76
2023-01-30T00:47:12.096Z,-4.62
2023-01-30T00:48:12.071Z,-4.55
2023-01-30T00:49:12.050Z,-4.48
2023-01-30T00:50:12.063Z,-4.41
2023-01-30T00:51:12.026Z,-4.51
2023-01-30T00:52:12.026Z,-4.40
2023-01-30T00:53:12.057Z,-4.49
2023-01-30T00:54:12.006Z,-4.45
2023-01-30T00:55:11.991Z,-4.36
2023-01-30T00:56:11.992Z,-4.62
2023-01-30T00:57:11.964Z,-4.62
2023-01-30T00:58:11.958Z,-4.63
2023-01-30T00:59:11.974Z,-4.76
2023-01-30T01:00:11.941Z,-4.85
2023-01-30T01:01:11.933Z,-4.85
2023-01-30T01:02:11.939Z,-4.83
2023-01-30T01:03:11.950Z,-4.97
2023-01-30T01:04:11.892Z,-5.03
2023-01-30T01:05:11.915Z,-5.09
2023-01-30T01:06:11.884Z,-5.13
2023-01-30T01:07:11.855Z,-5.08
2023-01-30T01:08:11.850Z,-4.95
2023-01-30T01:09:11.836Z,-5.08
2023-01-30T01:10:11.831Z,-5.05
2023-01-30T01:11:11.848Z,-5.39
2023-01-30T01:12:11.810Z,-5.21
2023-01-30T01:13:11.795Z,-5.27
2023-01-30T01:14:11.786Z,-5.43
2023-01-30T01:15:11.773Z,-5.38
2023-01-30T01:16:11.829Z,-5.41
2023-01-30T01:17:11.800Z,-5.48
2023-01-30T01:18:11.741Z,-5.55
2023-01-30T01:19:11.735Z,-5.60
2023-01-30T01:20:11.720Z,-5.41
2023-01-30T01:21:11.708Z,-5.38
2023-01-30T01:22:11.705Z,-5.33
2023-01-30T01:23:11.727Z,-5.30
2023-01-30T01:24:11.679Z,-5.34
2023-01-30T01:25:11.665Z,-5.30
2023-01-30T01:26:11.732Z,-5.33
2023-01-30T01:27:11.644Z,-5.24
2023-01-30T01:28:11.646Z,-4.95
2023-01-30T01:29:11.653Z,-4.99
2023-01-30T01:30:11.616Z,-4.87
2023-01-30T01:31:11.724Z,-4.85
2023-01-30T01:32:11.680Z,-4.91
2023-01-30T01:33:11.580Z,-4.83
2023-01-30T01:34:11.581Z,-4.74
2023-01-30T01:35:11.585Z,-4.83
2023-01-30T01:36:16.217Z,-4.59
2023-01-30T01:37:12.653Z,-4.48
2023-01-30T01:38:11.528Z,-4.54
2023-01-30T01:39:11.524Z,-4.45
2023-01-30T01:40:11.516Z,-4.58
2023-01-30T01:41:11.528Z,-4.72
2023-01-30T01:42:11.504Z,-4.81
2023-01-30T01:43:11.498Z,-4.91
2023-01-30T01:44:11.478Z,-4.93
2023-01-30T01:45:11.452Z,-4.81
2023-01-30T01:46:11.516Z,-5.08
2023-01-30T01:47:11.460Z,-4.94
2023-01-30T01:48:11.426Z,-4.83
2023-01-30T01:49:11.434Z,-4.91
2023-01-30T01:50:11.407Z,-5.06
2023-01-30T01:51:11.388Z,-5.02
2023-01-30T01:52:11.392Z,-5.16
2023-01-30T01:53:11.404Z,-5.06
2023-01-30T01:54:11.358Z,-4.94
2023-01-30T01:55:11.348Z,-4.81
2023-01-30T01:56:11.338Z,-4.76
2023-01-30T01:57:11.324Z,-4.79
2023-01-30T01:58:11.339Z,-4.91
2023-01-30T01:59:11.325Z,-4.85
2023-01-30T02:00:11.302Z,-4.84
2023-01-30T02:01:11.324Z,-4.81
2023-01-30T02:02:11.307Z,-4.81
2023-01-30T02:03:11.260Z,-4.70
2023-01-30T02:04:11.280Z,-4.73
2023-01-30T02:05:11.247Z,-4.79
2023-01-30T02:06:11.231Z,-4.65
2023-01-30T02:07:11.215Z,-4.41
2023-01-30T02:08:11.209Z,-4.55
2023-01-30T02:09:11.211Z,-4.51
2023-01-30T02:10:11.214Z,-4.59
2023-01-30T02:11:11.179Z,-4.34
2023-01-30T02:12:11.167Z,-4.56
2023-01-30T02:13:11.153Z,-4.48
2023-01-30T02:14:11.146Z,-4.58
2023-01-30T02:15:11.145Z,-4.55
2023-01-30T02:16:11.152Z,-4.49
2023-01-30T02:17:11.186Z,-4.51
2023-01-30T02:18:11.103Z,-4.48
2023-01-30T02:19:11.087Z,-4.46
2023-01-30T02:20:11.082Z,-4.52
2023-01-30T02:21:11.079Z,-4.46
2023-01-30T02:22:11.087Z,-4.38
2023-01-30T02:23:11.050Z,-4.49
2023-01-30T02:24:11.039Z,-4.56
2023-01-30T02:25:11.024Z,-4.55
2023-01-30T02:26:11.067Z,-4.66
2023-01-30T02:27:11.017Z,-4.66
2023-01-30T02:28:11.032Z,-4.77
2023-01-30T02:29:10.983Z,-4.90
2023-01-30T02:30:10.974Z,-4.74
2023-01-30T02:31:11.144Z,-4.67
2023-01-30T02:32:10.954Z,-4.66
2023-01-30T02:33:10.945Z,-4.56
2023-01-30T02:34:10.973Z,-4.67
2023-01-30T02:35:10.964Z,-4.66
2023-01-30T02:36:10.922Z,-4.76
2023-01-30T02:37:10.896Z,-4.48
2023-01-30T02:38:10.891Z,-4.33
2023-01-30T02:39:10.884Z,-4.52
2023-01-30T02:40:10.905Z,-4.49
2023-01-30T02:41:10.854Z,-4.46
2023-01-30T02:42:10.869Z,-4.49
2023-01-30T02:43:10.832Z,-4.56
2023-01-30T02:44:10.854Z,-4.44
2023-01-30T02:45:10.812Z,-4.55
2023-01-30T02:46:10.986Z,-4.48
2023-01-30T02:47:10.792Z,-4.49
2023-01-30T02:48:10.782Z,-4.54
2023-01-30T02:49:10.788Z,-4.28
2023-01-30T02:50:10.762Z,-4.49
2023-01-30T02:51:10.749Z,-4.27
2023-01-30T02:52:10.772Z,-4.28
2023-01-30T02:53:10.727Z,-4.36
2023-01-30T02:54:10.733Z,-4.45
2023-01-30T02:55:10.733Z,-4.63
2023-01-30T02:56:10.702Z,-4.45
2023-01-30T02:57:10.686Z,-4.69
2023-01-30T02:58:10.726Z,-4.44
2023-01-30T02:59:10.663Z,-4.54
2023-01-30T03:00:10.663Z,-4.38
2023-01-30T03:01:10.715Z,-4.40
2023-01-30T03:02:10.705Z,-4.40
2023-01-30T03:03:10.626Z,-4.33
2023-01-30T03:04:10.645Z,-4.55
2023-01-30T03:05:10.601Z,-4.26
2023-01-30T03:06:10.601Z,-4.48
2023-01-30T03:07:10.580Z,-4.28
2023-01-30T03:08:10.571Z,-4.37
2023-01-30T03:09:10.559Z,-4.34
2023-01-30T03:10:10.589Z,-4.37
2023-01-30T03:11:10.545Z,-4.41
2023-01-30T03:12:10.530Z,-4.45
2023-01-30T03:13:10.519Z,-4.44
2023-01-30T03:14:10.523Z,-4.37
2023-01-30T03:15:10.503Z,-4.51
2023-01-30T03:16:10.557Z,-4.58
2023-01-30T03:17:10.470Z,-4.45
2023-01-30T03:18:10.465Z,-4.58
2023-01-30T03:19:10.458Z,-4.48
2023-01-30T03:20:10.441Z,-4.45
2023-01-30T03:21:10.451Z,-4.55
2023-01-30T03:22:10.445Z,-4.67
2023-01-30T03:23:10.420Z,-4.58
2023-01-30T03:24:10.399Z,-4.59
2023-01-30T03:25:10.393Z,-4.51
2023-01-30T03:26:10.422Z,-4.49
2023-01-30T03:27:10.369Z,-4.54
2023-01-30T03:28:10.390Z,-4.46
2023-01-30T03:29:10.346Z,-4.51
2023-01-30T03:30:10.333Z,-4.66
2023-01-30T03:31:10.413Z,-4.52
2023-01-30T03:32:10.316Z,-4.69
2023-01-30T03:33:10.302Z,-4.52
2023-01-30T03:34:10.316Z,-4.46
2023-01-30T03:35:10.282Z,-4.62
2023-01-30T03:36:10.282Z,-4.58
2023-01-30T03:37:10.269Z,-4.56
2023-01-30T03:38:10.248Z,-4.41
2023-01-30T03:39:10.244Z,-4.49
2023-01-30T03:40:10.275Z,-4.51
2023-01-30T03:41:10.217Z,-4.49
2023-01-30T03:42:10.221Z,-4.41
2023-01-30T03:43:10.196Z,-4.48
2023-01-30T03:44:10.200Z,-4.40
2023-01-30T03:45:10.177Z,-4.30
2023-01-30T03:46:10.253Z,-4.38
2023-01-30T03:47:10.154Z,-4.26
2023-01-30T03:48:10.157Z,-4.38
2023-01-30T03:49:10.138Z,-4.30
2023-01-30T03:50:10.119Z,-4.34
2023-01-30T03:51:10.113Z,-4.52
2023-01-30T03:52:10.128Z,-4.34
2023-01-30T03:53:10.105Z,-4.52
2023-01-30T03:54:10.076Z,-4.40
2023-01-30T03:55:10.071Z,-4.55
2023-01-30T03:56:10.093Z,-4.65
2023-01-30T03:57:10.045Z,-4.65
2023-01-30T03:58:10.062Z,-4.55
2023-01-30T03:59:17.583Z,-4.52
2023-01-30T04:00:18.533Z,-4.37
2023-01-30T04:01:17.551Z,-4.36
2023-01-30T04:02:10.032Z,-4.28
2023-01-30T04:03:17.510Z,-4.27
2023-01-30T04:04:09.970Z,-4.34
2023-01-30T04:05:17.993Z,-4.40
2023-01-30T04:06:09.954Z,-4.41
2023-01-30T04:07:09.944Z,-4.58
2023-01-30T04:08:09.926Z,-4.66
2023-01-30T04:09:09.921Z,-4.66
2023-01-30T04:10:17.451Z,-4.87
2023-01-30T04:11:09.920Z,-4.95
2023-01-30T04:12:17.407Z,-4.99
2023-01-30T04:13:09.878Z,-4.95
2023-01-30T04:14:09.894Z,-5.11
2023-01-30T04:15:09.876Z,-4.85
2023-01-30T04:16:09.843Z,-4.94
2023-01-30T04:17:09.874Z,-4.83
2023-01-30T04:18:09.836Z,-5.01
2023-01-30T04:19:09.817Z,-5.06
2023-01-30T04:20:09.815Z,-4.91
2023-01-30T04:21:09.793Z,-4.77
2023-01-30T04:22:09.783Z,-4.79
2023-01-30T04:23:09.774Z,-4.87
2023-01-30T04:24:09.768Z,-4.76
2023-01-30T04:25:09.767Z,-4.83
2023-01-30T04:26:09.848Z,-4.88
2023-01-30T04:27:09.731Z,-4.70
2023-01-30T04:28:09.732Z,-4.59
2023-01-30T04:29:09.716Z,-4.65
2023-01-30T04:30:09.708Z,-4.65
2023-01-30T04:31:09.754Z,-4.62
2023-01-30T04:32:09.673Z,-4.62
2023-01-30T04:33:09.664Z,-4.65
2023-01-30T04:34:09.672Z,-4.63
2023-01-30T04:35:09.649Z,-4.58
2023-01-30T04:36:09.630Z,-4.74
2023-01-30T04:37:09.631Z,-4.73
2023-01-30T04:38:09.612Z,-4.85
2023-01-30T04:39:09.603Z,-4.94
2023-01-30T04:40:09.599Z,-5.03
2023-01-30T04:41:10.384Z,-5.08
2023-01-30T04:42:09.566Z,-5.09
2023-01-30T04:43:09.574Z,-5.16
2023-01-30T04:44:09.545Z,-5.02
2023-01-30T04:45:09.557Z,-4.90
2023-01-30T04:46:09.528Z,-4.79
2023-01-30T04:47:09.552Z,-4.70
2023-01-30T04:48:09.518Z,-4.62
2023-01-30T04:49:09.533Z,-4.63
2023-01-30T04:50:09.492Z,-4.48
2023-01-30T04:51:09.475Z,-4.69
2023-01-30T04:52:09.474Z,-4.65
2023-01-30T04:53:09.456Z,-4.65
2023-01-30T04:54:09.532Z,-4.70
2023-01-30T04:55:09.443Z,-4.58
2023-01-30T04:56:09.478Z,-4.67
2023-01-30T04:57:09.434Z,-4.72
2023-01-30T04:58:09.404Z,-4.63
2023-01-30T04:59:09.392Z,-4.88
2023-01-30T05:00:09.392Z,-4.81
2023-01-30T05:01:09.469Z,-4.91
2023-01-30T05:02:09.390Z,-5.03
2023-01-30T05:03:09.385Z,-4.99
2023-01-30T05:04:09.339Z,-5.02
2023-01-30T05:05:09.337Z,-4.93
2023-01-30T05:06:09.313Z,-5.02
2023-01-30T05:07:09.320Z,-4.90
2023-01-30T05:08:09.306Z,-4.93
2023-01-30T05:09:09.304Z,-4.83
2023-01-30T05:10:09.273Z,-4.74
2023-01-30T05:11:09.280Z,-4.84
2023-01-30T05:12:09.254Z,-4.94
2023-01-30T05:13:09.307Z,-4.95
2023-01-30T05:14:09.229Z,-4.95
2023-01-30T05:15:09.240Z,-4.95
2023-01-30T05:16:09.215Z,-4.83
2023-01-30T05:17:09.974Z,-4.94
2023-01-30T05:18:09.203Z,-4.87
2023-01-30T05:19:09.214Z,-4.84
2023-01-30T05:20:09.168Z,-4.87
2023-01-30T05:21:09.185Z,-4.91
2023-01-30T05:22:09.145Z,-5.06
2023-01-30T05:23:09.168Z,-5.08
2023-01-30T05:24:09.157Z,-4.90
2023-01-30T05:25:09.115Z,-4.93
2023-01-30T05:26:09.110Z,-4.84
2023-01-30T05:27:09.112Z,-4.73
2023-01-30T05:28:09.087Z,-4.65
2023-01-30T05:29:09.074Z,-4.59
2023-01-30T05:30:09.081Z,-4.65
2023-01-30T05:31:09.157Z,-4.56
2023-01-30T05:32:09.042Z,-4.54
2023-01-30T05:33:09.043Z,-4.51
2023-01-30T05:34:09.151Z,-4.48
2023-01-30T05:35:09.043Z,-4.46
2023-01-30T05:36:09.040Z,-4.48
2023-01-30T05:37:08.997Z,-4.44
2023-01-30T05:38:08.979Z,-4.38
2023-01-30T05:39:08.974Z,-4.33
2023-01-30T05:40:08.959Z,-4.34
2023-01-30T05:41:08.961Z,-4.30
2023-01-30T05:42:08.950Z,-4.22
2023-01-30T05:43:08.929Z,-4.36
2023-01-30T05:44:10.974Z,-4.33
2023-01-30T05:45:08.912Z,-4.28
2023-01-30T05:46:08.904Z,-4.37
2023-01-30T05:47:08.886Z,-4.31
2023-01-30T05:48:08.883Z,-4.12
2023-01-30T05:49:08.864Z,-4.30
2023-01-30T05:50:08.867Z,-4.12
2023-01-30T05:51:08.867Z,-4.19
2023-01-30T05:52:08.850Z,-4.13
2023-01-30T05:53:08.837Z,-4.22
2023-01-30T05:54:08.807Z,-4.17
2023-01-30T05:55:08.799Z,-4.07
2023-01-30T05:56:08.798Z,-4.20
2023-01-30T05:57:08.785Z,-4.06
2023-01-30T05:58:08.769Z,-4.13
2023-01-30T05:59:08.773Z,-4.09
2023-01-30T06:00:08.744Z,-4.06
2023-01-30T06:01:08.737Z,-4.02
2023-01-30T06:02:10.512Z,-3.95
2023-01-30T06:03:08.717Z,-4.02
2023-01-30T06:04:08.816Z,-4.09
2023-01-30T06:05:08.720Z,-3.97
2023-01-30T06:06:08.678Z,-4.09
2023-01-30T06:07:08.693Z,-4.15
2023-01-30T06:08:08.672Z,-4.30
2023-01-30T06:09:08.650Z,-4.20
2023-01-30T06:10:08.642Z,-4.34
2023-01-30T06:11:08.656Z,-4.28
2023-01-30T06:12:08.617Z,-4.20
2023-01-30T06:13:08.620Z,-4.17
2023-01-30T06:14:08.596Z,-4.06
2023-01-30T06:15:08.587Z,-4.10
2023-01-30T06:16:08.655Z,-4.04
2023-01-30T06:17:08.617Z,-4.01
2023-01-30T06:18:08.553Z,-4.15
2023-01-30T06:19:08.565Z,-3.95
2023-01-30T06:20:08.532Z,-4.01
2023-01-30T06:21:08.521Z,-4.01
2023-01-30T06:22:08.510Z,-3.92
2023-01-30T06:23:08.524Z,-3.95
2023-01-30T06:24:08.489Z,-4.07
2023-01-30T06:25:08.488Z,-3.95
2023-01-30T06:26:09.355Z,-4.04
2023-01-30T06:27:08.484Z,-4.16
2023-01-30T06:28:08.445Z,-3.91
2023-01-30T06:29:08.448Z,-3.94
2023-01-30T06:30:08.439Z,-3.94
2023-01-30T06:31:08.527Z,-3.80
2023-01-30T06:32:08.402Z,-3.77
2023-01-30T06:33:08.395Z,-3.74
2023-01-30T06:34:08.379Z,-3.77
2023-01-30T06:35:08.397Z,-3.74
2023-01-30T06:36:08.376Z,-3.91
2023-01-30T06:37:08.441Z,-3.92
2023-01-30T06:38:08.367Z,-3.77
2023-01-30T06:39:08.348Z,-3.80
2023-01-30T06:40:08.319Z,-3.84
2023-01-30T06:41:08.343Z,-3.83
2023-01-30T06:42:08.295Z,-3.79
2023-01-30T06:43:08.294Z,-3.62
2023-01-30T06:44:08.276Z,-3.81
2023-01-30T06:45:08.269Z,-3.94
2023-01-30T06:46:08.282Z,-3.89
2023-01-30T06:47:08.278Z,-3.89
2023-01-30T06:48:08.234Z,-3.97
2023-01-30T06:49:08.241Z,-3.86
2023-01-30T06:50:08.212Z,-3.84
2023-01-30T06:51:08.207Z,-3.80
2023-01-30T06:52:08.188Z,-3.91
2023-01-30T06:53:08.211Z,-3.80
2023-01-30T06:54:08.171Z,-3.76
2023-01-30T06:55:08.191Z,-3.76
2023-01-30T06:56:08.150Z,-3.74
2023-01-30T06:57:08.142Z,-3.74
2023-01-30T06:58:08.144Z,-3.84
2023-01-30T06:59:08.135Z,-3.79
2023-01-30T07:00:08.109Z,-3.84
2023-01-30T07:01:08.103Z,-3.79
2023-01-30T07:02:08.108Z,-3.65
2023-01-30T07:03:08.092Z,-3.68
2023-01-30T07:04:08.187Z,-3.61
2023-01-30T07:05:08.072Z,-3.46
2023-01-30T07:06:08.053Z,-3.49
2023-01-30T07:07:08.040Z,-3.64
2023-01-30T07:08:08.048Z,-3.64
2023-01-30T07:09:08.016Z,-3.65
2023-01-30T07:10:09.053Z,-3.62
2023-01-30T07:11:08.033Z,-3.69
2023-01-30T07:12:07.981Z,-3.72
2023-01-30T07:13:07.977Z,-3.72
2023-01-30T07:14:07.962Z,-3.84
2023-01-30T07:15:07.988Z,-3.95
2023-01-30T07:16:07.950Z,-3.92
2023-01-30T07:17:07.955Z,-3.91
2023-01-30T07:18:07.928Z,-3.92
2023-01-30T07:19:07.913Z,-3.94
2023-01-30T07:20:07.898Z,-4.02
2023-01-30T07:21:07.887Z,-4.02
2023-01-30T07:22:07.883Z,-4.04
2023-01-30T07:23:07.893Z,-4.02
2023-01-30T07:24:07.861Z,-4.04
2023-01-30T07:25:07.850Z,-4.01
2023-01-30T07:26:07.850Z,-3.89
2023-01-30T07:27:07.843Z,-3.95
2023-01-30T07:28:07.818Z,-4.01
2023-01-30T07:29:07.836Z,-4.06
2023-01-30T07:30:07.796Z,-4.10
2023-01-30T07:31:07.789Z,-4.09
2023-01-30T07:32:07.775Z,-4.04
2023-01-30T07:33:07.771Z,-4.13
2023-01-30T07:34:07.753Z,-4.13
2023-01-30T07:35:07.746Z,-4.13
2023-01-30T07:36:07.761Z,-4.27
2023-01-30T07:37:07.721Z,-4.06
2023-01-30T07:38:07.718Z,-4.04
2023-01-30T07:39:07.698Z,-4.04
2023-01-30T07:40:07.690Z,-3.99
2023-01-30T07:41:07.678Z,-3.92
2023-01-30T07:42:07.692Z,-3.97
2023-01-30T07:43:07.675Z,-3.84
2023-01-30T07:44:07.648Z,-3.92
2023-01-30T07:45:07.645Z,-3.86
2023-01-30T07:46:07.626Z,-3.79
2023-01-30T07:47:07.628Z,-3.76
2023-01-30T07:48:07.633Z,-3.80
2023-01-30T07:49:07.602Z,-3.94
2023-01-30T07:50:07.596Z,-4.04
2023-01-30T07:51:07.575Z,-3.95
2023-01-30T07:52:07.607Z,-3.91
2023-01-30T07:53:07.605Z,-4.13
2023-01-30T07:54:07.567Z,-4.02
2023-01-30T07:55:07.536Z,-4.13
2023-01-30T07:56:07.524Z,-4.06
2023-01-30T07:57:07.512Z,-3.92
2023-01-30T07:58:07.501Z,-3.91
2023-01-30T07:59:07.508Z,-3.98
2023-01-30T08:00:07.514Z,-3.89
2023-01-30T08:01:07.554Z,-3.94
2023-01-30T08:02:07.463Z,-4.07
2023-01-30T08:03:07.446Z,-4.09
2023-01-30T08:04:07.442Z,-4.12
2023-01-30T08:05:07.426Z,-4.09
2023-01-30T08:06:07.452Z,-4.07
2023-01-30T08:07:07.407Z,-4.07
2023-01-30T08:08:07.398Z,-4.10
2023-01-30T08:09:07.523Z,-4.12
2023-01-30T08:10:07.375Z,-4.01
2023-01-30T08:11:07.363Z,-4.04
2023-01-30T08:12:07.379Z,-4.04
2023-01-30T08:13:07.499Z,-3.99
2023-01-30T08:14:07.387Z,-3.94
2023-01-30T08:15:07.338Z,-4.02
2023-01-30T08:16:07.321Z,-4.02
2023-01-30T08:17:07.324Z,-3.83
2023-01-30T08:18:07.427Z,-3.97
2023-01-30T08:19:07.281Z,-3.65
2023-01-30T08:20:07.283Z,-3.41
2023-01-30T08:21:07.278Z,-3.40
2023-01-30T08:22:07.255Z,-3.19
2023-01-30T08:23:07.236Z,-2.95
2023-01-30T08:24:07.233Z,-2.93
2023-01-30T08:25:07.285Z,-2.69
2023-01-30T08:26:07.235Z,-2.76
2023-01-30T08:27:07.194Z,-2.94
2023-01-30T08:28:07.187Z,-2.61
2023-01-30T08:29:07.182Z,-2.83
2023-01-30T08:30:07.168Z,-2.66
2023-01-30T08:31:07.332Z,-2.79
2023-01-30T08:32:07.157Z,-2.82
2023-01-30T08:33:07.131Z,-2.83
2023-01-30T08:34:07.136Z,-2.97
2023-01-30T08:35:07.112Z,-3.02
2023-01-30T08:36:07.106Z,-3.15
2023-01-30T08:37:07.098Z,-3.05
2023-01-30T08:38:07.107Z,-3.15
2023-01-30T08:39:07.085Z,-3.04
2023-01-30T08:40:07.072Z,-3.13
2023-01-30T08:41:07.047Z,-3.08
2023-01-30T08:42:07.044Z,-3.08
2023-01-30T08:43:07.028Z,-3.04
2023-01-30T08:44:07.027Z,-2.89
2023-01-30T08:45:07.021Z,-3.05
2023-01-30T08:46:07.017Z,-3.05
2023-01-30T08:47:07.005Z,-2.98
2023-01-30T08:48:06.977Z,-3.10
2023-01-30T08:49:06.990Z,-3.07
2023-01-30T08:50:06.960Z,-3.07
2023-01-30T08:51:06.963Z,-3.01
2023-01-30T08:52:06.938Z,-2.97
2023-01-30T08:53:06.927Z,-2.94
2023-01-30T08:54:06.917Z,-3.02
2023-01-30T08:55:06.905Z,-3.05
2023-01-30T08:56:06.900Z,-3.00
2023-01-30T08:57:06.885Z,-2.98
2023-01-30T08:58:06.875Z,-3.08
2023-01-30T08:59:06.866Z,-3.00
2023-01-30T09:00:06.853Z,-3.00
2023-01-30T09:01:06.865Z,-3.02
2023-01-30T09:02:06.927Z,-2.94
2023-01-30T09:03:06.855Z,-2.86
2023-01-30T09:04:06.827Z,-2.98
2023-01-30T09:05:06.805Z,-2.90
2023-01-30T09:06:06.786Z,-2.83
2023-01-30T09:07:06.788Z,-2.86
2023-01-30T09:08:06.773Z,-2.93
2023-01-30T09:09:06.764Z,-2.80
2023-01-30T09:10:06.750Z,-2.77
2023-01-30T09:11:06.745Z,-2.79
2023-01-30T09:12:06.732Z,-2.83
2023-01-30T09:13:06.723Z,-2.72
2023-01-30T09:14:06.710Z,-2.90
2023-01-30T09:15:06.692Z,-2.74
2023-01-30T09:16:06.710Z,-2.53
2023-01-30T09:17:06.681Z,-2.07
2023-01-30T09:18:06.663Z,-1.41
2023-01-30T09:19:06.677Z,-0.73
2023-01-30T09:20:06.651Z,-0.09
2023-01-30T09:21:06.625Z,0.57
2023-01-30T09:22:06.617Z,0.78
2023-01-30T09:23:06.606Z,1.18
2023-01-30T09:24:06.597Z,1.28
2023-01-30T09:25:06.595Z,1.35
2023-01-30T09:26:06.587Z,1.39
2023-01-30T09:27:06.575Z,1.57
2023-01-30T09:28:06.558Z,1.71
2023-01-30T09:29:06.539Z,1.75
2023-01-30T09:30:06.533Z,1.85
2023-01-30T09:31:06.725Z,2.11
2023-01-30T09:32:06.526Z,2.25
2023-01-30T09:33:06.507Z,2.27
2023-01-30T09:34:06.495Z,2.58
2023-01-30T09:35:06.514Z,2.98
2023-01-30T09:36:06.511Z,3.07
2023-01-30T09:37:06.775Z,3.22
2023-01-30T09:38:06.479Z,2.79
2023-01-30T09:39:06.482Z,2.81
2023-01-30T09:40:06.427Z,3.02
2023-01-30T09:41:06.438Z,3.01
2023-01-30T09:42:06.411Z,2.63
2023-01-30T09:43:06.395Z,2.69
2023-01-30T09:44:06.450Z,2.55
2023-01-30T09:45:06.371Z,2.15
2023-01-30T09:46:06.482Z,1.98
2023-01-30T09:47:06.363Z,2.22
2023-01-30T09:48:06.355Z,2.37
2023-01-30T09:49:06.328Z,2.56
2023-01-30T09:50:06.355Z,2.37
2023-01-30T09:51:06.322Z,2.40
2023-01-30T09:52:06.332Z,2.73
2023-01-30T09:53:06.285Z,2.65
2023-01-30T09:54:06.291Z,2.76
2023-01-30T09:55:06.261Z,2.90
2023-01-30T09:56:06.298Z,2.76
2023-01-30T09:57:06.240Z,2.86
2023-01-30T09:58:06.251Z,3.22
2023-01-30T09:59:06.224Z,3.53
2023-01-30T10:00:06.212Z,3.19
2023-01-30T10:01:06.197Z,2.94
2023-01-30T10:02:06.211Z,3.12
2023-01-30T10:03:06.221Z,2.98
2023-01-30T10:04:06.190Z,2.99
2023-01-30T10:05:06.205Z,3.02
2023-01-30T10:06:06.148Z,3.08
2023-01-30T10:07:06.160Z,3.01
2023-01-30T10:08:06.174Z,3.31
2023-01-30T10:09:06.115Z,3.07
2023-01-30T10:10:06.117Z,3.22
2023-01-30T10:11:10.619Z,3.13
2023-01-30T10:12:06.099Z,3.23
2023-01-30T10:13:06.069Z,3.42
2023-01-30T10:14:06.080Z,3.74
2023-01-30T10:15:06.048Z,3.59
2023-01-30T10:16:06.078Z,3.45
2023-01-30T10:17:06.028Z,3.30
2023-01-30T10:18:06.022Z,3.17
2023-01-30T10:19:06.002Z,3.16
2023-01-30T10:20:06.027Z,3.10
2023-01-30T10:21:05.990Z,2.61
2023-01-30T10:22:05.996Z,2.68
2023-01-30T10:23:05.981Z,2.62
2023-01-30T10:24:05.956Z,2.92
2023-01-30T10:25:05.940Z,2.90
2023-01-30T10:26:05.959Z,2.87
2023-01-30T10:27:05.939Z,2.74
2023-01-30T10:28:05.924Z,3.17
2023-01-30T10:29:07.787Z,3.31
2023-01-30T10:30:05.889Z,3.17
2023-01-30T10:31:06.071Z,3.52
2023-01-30T10:32:05.904Z,3.64
2023-01-30T10:33:05.866Z,3.50
2023-01-30T10:34:05.866Z,2.98
2023-01-30T10:35:05.838Z,3.39
2023-01-30T10:36:05.829Z,3.71
2023-01-30T10:37:05.825Z,3.99
2023-01-30T10:38:05.839Z,4.35
2023-01-30T10:39:05.815Z,4.49
2023-01-30T10:40:05.854Z,4.44
2023-01-30T10:41:05.768Z,4.34
2023-01-30T10:42:05.771Z,4.10
2023-01-30T10:43:05.770Z,3.82
2023-01-30T10:44:05.771Z,3.93
2023-01-30T10:45:05.729Z,4.25
2023-01-30T10:46:05.719Z,4.17
2023-01-30T10:47:05.707Z,4.24
2023-01-30T10:48:05.697Z,4.13
2023-01-30T10:49:05.712Z,3.72
2023-01-30T10:50:05.675Z,4.20
2023-01-30T10:51:05.666Z,4.14
2023-01-30T10:52:05.657Z,4.14
2023-01-30T10:53:05.644Z,3.81
2023-01-30T10:54:05.642Z,3.93
2023-01-30T10:55:05.668Z,4.14
2023-01-30T10:56:05.613Z,4.54
2023-01-30T10:57:05.600Z,4.69
2023-01-30T10:58:05.593Z,4.57
2023-01-30T10:59:05.575Z,4.49
2023-01-30T11:00:05.578Z,4.34
2023-01-30T11:01:05.590Z,4.54
2023-01-30T11:02:05.626Z,4.10
2023-01-30T11:03:05.588Z,3.99
2023-01-30T11:04:05.529Z,4.06
2023-01-30T11:05:05.515Z,3.90
2023-01-30T11:06:05.520Z,4.02
2023-01-30T11:07:05.523Z,4.02
2023-01-30T11:08:05.524Z,3.96
2023-01-30T11:09:05.487Z,4.08
2023-01-30T11:10:05.462Z,4.20
2023-01-30T11:11:05.477Z,4.24
2023-01-30T11:12:05.437Z,4.34
2023-01-30T11:13:05.450Z,4.24
2023-01-30T11:14:05.414Z,3.86
2023-01-30T11:15:05.421Z,3.90
2023-01-30T11:16:05.520Z,3.60
2023-01-30T11:17:05.390Z,3.60
2023-01-30T11:18:33.478Z,3.96
2023-01-30T11:19:19.689Z,4.20
2023-01-30T11:20:06.353Z,3.82
2023-01-30T11:21:05.346Z,3.68
2023-01-30T11:22:05.341Z,3.57
2023-01-30T11:23:05.325Z,3.57
2023-01-30T11:24:05.306Z,3.98
2023-01-30T11:25:05.317Z,3.90
2023-01-30T11:26:11.232Z,3.82
2023-01-30T11:27:06.466Z,4.20
2023-01-30T11:28:05.264Z,3.72
2023-01-30T11:29:05.253Z,3.04
2023-01-30T11:30:05.246Z,2.95
2023-01-30T11:31:05.346Z,2.94
2023-01-30T11:32:05.350Z,3.30
2023-01-30T11:33:05.222Z,3.12
2023-01-30T11:34:05.216Z,3.19
2023-01-30T11:35:05.185Z,3.15
2023-01-30T11:36:05.522Z,3.20
2023-01-30T11:37:05.222Z,3.20
2023-01-30T11:38:05.152Z,3.19
2023-01-30T11:39:05.160Z,3.31
2023-01-30T11:40:05.132Z,3.57
2023-01-30T11:41:05.125Z,3.82
2023-01-30T11:42:05.114Z,4.21
2023-01-30T11:43:05.131Z,3.95
2023-01-30T11:44:05.090Z,3.82
2023-01-30T11:45:17.084Z,3.81
2023-01-30T11:46:06.114Z,3.75
2023-01-30T11:47:05.062Z,3.01
2023-01-30T11:48:05.459Z,2.53
2023-01-30T11:49:35.937Z,2.74
2023-01-30T11:50:14.946Z,3.15
2023-01-30T11:51:06.018Z,3.01
2023-01-30T11:52:05.010Z,3.08
2023-01-30T11:53:04.994Z,2.95
2023-01-30T11:54:04.991Z,2.84
2023-01-30T11:55:05.019Z,2.92
2023-01-30T11:56:08.342Z,2.92
2023-01-30T11:57:04.962Z,3.22
2023-01-30T11:58:04.938Z,3.28
2023-01-30T11:59:04.979Z,3.64
2023-01-30T12:00:04.918Z,3.34
2023-01-30T12:01:05.049Z,3.08
2023-01-30T12:02:04.948Z,3.02
2023-01-30T12:03:04.948Z,3.44
2023-01-30T12:04:04.874Z,4.08
2023-01-30T12:05:04.872Z,3.34
2023-01-30T12:06:04.856Z,2.51
2023-01-30T12:07:04.893Z,2.37
2023-01-30T12:08:04.831Z,2.68
2023-01-30T12:09:04.825Z,2.80
2023-01-30T12:10:04.813Z,2.92
2023-01-30T12:11:04.807Z,2.98
2023-01-30T12:12:04.793Z,3.26
2023-01-30T12:13:04.822Z,3.20
2023-01-30T12:14:04.769Z,3.10
2023-01-30T12:15:04.788Z,3.30
2023-01-30T12:16:04.811Z,3.12
2023-01-30T12:17:04.741Z,2.99
2023-01-30T12:18:04.735Z,2.83
2023-01-30T12:19:04.756Z,2.89
2023-01-30T12:20:04.712Z,2.95
2023-01-30T12:21:04.698Z,3.07
2023-01-30T12:22:04.686Z,3.20
2023-01-30T12:23:04.702Z,3.26
2023-01-30T12:24:04.659Z,3.67
2023-01-30T12:25:04.695Z,3.74
2023-01-30T12:26:04.639Z,3.42
2023-01-30T12:27:04.645Z,3.23
2023-01-30T12:28:04.632Z,3.53
2023-01-30T12:29:04.627Z,3.59
2023-01-30T12:30:04.599Z,4.04
2023-01-30T12:31:04.629Z,4.38
2023-01-30T12:32:04.574Z,4.61
2023-01-30T12:33:04.597Z,4.87
2023-01-30T12:34:04.555Z,4.90
2023-01-30T12:35:04.650Z,4.79
2023-01-30T12:36:04.541Z,4.53
2023-01-30T12:37:04.571Z,4.46
2023-01-30T12:38:04.509Z,4.16
2023-01-30T12:39:04.503Z,3.89
2023-01-30T12:40:04.488Z,4.21
2023-01-30T12:41:04.488Z,3.93
2023-01-30T12:42:04.469Z,3.81
2023-01-30T12:43:04.491Z,3.72
2023-01-30T12:44:04.465Z,3.70
2023-01-30T12:45:04.438Z,3.70
2023-01-30T12:46:04.463Z,3.64
2023-01-30T12:47:04.450Z,3.59
2023-01-30T12:48:04.414Z,3.59
2023-01-30T12:49:12.226Z,3.49
2023-01-30T12:52:26.028Z,3.26
2023-01-30T12:53:33.531Z,3.52
2023-01-30T12:54:26.006Z,3.41
2023-01-30T12:55:34.530Z,3.33
2023-01-30T12:56:33.518Z,3.49
2023-01-30T12:57:33.529Z,3.31
2023-01-30T12:58:33.476Z,3.46
2023-01-30T12:59:33.460Z,3.54
2023-01-30T13:00:33.452Z,3.70
2023-01-30T13:01:33.616Z,4.31
2023-01-30T13:02:33.505Z,4.35